createdAt,value
2019-01-26T00:00:54.813Z,35.80
2019-01-26T00:01:54.801Z,77.30
2019-01-26T00:02:54.848Z,25.80
2019-01-26T00:03:54.882Z,33.60
2019-01-26T00:04:54.739Z,30.40
2019-01-26T00:05:54.728Z,40.30
2019-01-26T00:06:54.719Z,53.20
2019-01-26T00:07:54.703Z,32.50
2019-01-26T00:08:54.717Z,35.10
2019-01-26T00:09:54.761Z,31.40
2019-01-26T00:10:54.737Z,97.20
2019-01-26T00:11:54.739Z,49.90
2019-01-26T00:12:54.708Z,50.80
2019-01-26T00:13:54.710Z,63.10
2019-01-26T00:14:55.676Z,81.40
2019-01-26T00:15:54.631Z,63.20
2019-01-26T00:16:54.604Z,73.40
2019-01-26T00:17:54.622Z,35.30
2019-01-26T00:18:54.637Z,44.10
2019-01-26T00:19:55.060Z,90.40
2019-01-26T00:20:54.572Z,46.40
2019-01-26T00:21:54.570Z,43.40
2019-01-26T00:22:54.558Z,56.50
2019-01-26T00:23:55.770Z,70.30
2019-01-26T00:24:54.547Z,57.70
2019-01-26T00:25:54.564Z,85.20
2019-01-26T00:26:54.570Z,103.90
2019-01-26T00:27:54.549Z,46.30
2019-01-26T00:28:54.495Z,64.20
2019-01-26T00:29:54.481Z,100.80
2019-01-26T00:30:54.512Z,33.30
2019-01-26T00:31:54.481Z,30.90
2019-01-26T00:32:55.462Z,29.50
2019-01-26T00:33:54.447Z,41.90
2019-01-26T00:34:54.449Z,39.20
2019-01-26T00:35:54.456Z,28.90
2019-01-26T00:36:54.463Z,44.90
2019-01-26T00:37:54.387Z,33.00
2019-01-26T00:38:54.379Z,33.70
2019-01-26T00:39:54.369Z,33.50
2019-01-26T00:40:54.364Z,33.40
2019-01-26T00:41:54.416Z,35.70
2019-01-26T00:42:55.043Z,36.50
2019-01-26T00:43:54.339Z,53.00
2019-01-26T00:44:54.355Z,34.90
2019-01-26T00:45:54.354Z,48.70
2019-01-26T00:46:54.303Z,65.40
2019-01-26T00:47:54.299Z,39.40
2019-01-26T00:48:54.314Z,49.90
2019-01-26T00:49:54.283Z,57.80
2019-01-26T00:50:54.284Z,63.50
2019-01-26T00:51:54.271Z,77.90
2019-01-26T00:52:54.239Z,46.10
2019-01-26T00:53:54.221Z,41.80
2019-01-26T00:54:54.247Z,77.70
2019-01-26T00:55:54.248Z,56.80
2019-01-26T00:56:54.220Z,40.80
2019-01-26T00:57:54.199Z,82.60
2019-01-26T00:58:54.178Z,50.40
2019-01-26T00:59:54.153Z,42.70
2019-01-26T01:00:54.153Z,42.70
2019-01-26T01:01:54.179Z,38.30
2019-01-26T01:02:54.131Z,35.10
2019-01-26T01:03:54.120Z,47.90
2019-01-26T01:04:54.107Z,63.20
2019-01-26T01:05:54.102Z,49.50
2019-01-26T01:06:54.079Z,42.70
2019-01-26T01:07:55.095Z,26.40
2019-01-26T01:08:54.074Z,53.70
2019-01-26T01:09:54.085Z,32.30
2019-01-26T01:10:54.047Z,55.30
2019-01-26T01:11:54.043Z,94.20
2019-01-26T01:12:54.058Z,69.80
2019-01-26T01:13:54.056Z,34.00
2019-01-26T01:14:54.019Z,43.80
2019-01-26T01:15:53.992Z,57.40
2019-01-26T01:16:53.974Z,62.70
2019-01-26T01:17:53.986Z,58.00
2019-01-26T01:18:54.013Z,65.90
2019-01-26T01:19:53.968Z,39.00
2019-01-26T01:20:53.982Z,36.60
2019-01-26T01:21:53.977Z,23.50
2019-01-26T01:22:53.967Z,33.10
2019-01-26T01:23:53.921Z,57.90
2019-01-26T01:24:53.895Z,54.90
2019-01-26T01:25:53.890Z,31.50
2019-01-26T01:26:53.889Z,22.20
2019-01-26T01:27:53.864Z,36.20
2019-01-26T01:28:53.895Z,29.70
2019-01-26T01:29:53.847Z,88.70
2019-01-26T01:30:53.867Z,81.10
2019-01-26T01:31:53.865Z,75.40
2019-01-26T01:32:53.950Z,41.40
2019-01-26T01:33:53.802Z,72.50
2019-01-26T01:34:53.883Z,54.60
2019-01-26T01:35:53.786Z,41.50
2019-01-26T01:36:53.800Z,51.50
2019-01-26T01:37:53.757Z,21.20
2019-01-26T01:38:53.810Z,41.80
2019-01-26T01:39:53.771Z,35.70
2019-01-26T01:40:53.735Z,31.60
2019-01-26T01:41:53.718Z,94.30
2019-01-26T01:42:53.727Z,56.00
2019-01-26T01:43:53.715Z,44.90
2019-01-26T01:44:53.710Z,33.80
2019-01-26T01:45:53.709Z,56.50
2019-01-26T01:46:53.668Z,65.80
2019-01-26T01:47:53.671Z,65.10
2019-01-26T01:48:53.654Z,27.10
2019-01-26T01:49:53.641Z,30.60
2019-01-26T01:50:53.676Z,21.50
2019-01-26T01:51:53.643Z,48.20
2019-01-26T01:52:53.611Z,73.80
2019-01-26T01:53:53.626Z,47.70
2019-01-26T01:54:53.583Z,60.90
2019-01-26T01:55:53.610Z,60.10
2019-01-26T01:56:53.596Z,56.70
2019-01-26T01:57:53.580Z,68.30
2019-01-26T01:58:53.562Z,45.60
2019-01-26T01:59:53.571Z,32.20
2019-01-26T02:00:53.547Z,46.60
2019-01-26T02:01:53.549Z,44.80
2019-01-26T02:02:53.520Z,35.20
2019-01-26T02:03:53.485Z,41.20
2019-01-26T02:04:53.512Z,22.40
2019-01-26T02:05:53.479Z,54.30
2019-01-26T02:06:53.496Z,50.10
2019-01-26T02:07:53.459Z,26.80
2019-01-26T02:08:53.438Z,29.90
2019-01-26T02:09:53.434Z,43.00
2019-01-26T02:10:53.416Z,26.90
2019-01-26T02:11:53.409Z,53.00
2019-01-26T02:12:53.459Z,17.00
2019-01-26T02:13:53.388Z,25.40
2019-01-26T02:14:53.400Z,19.70
2019-01-26T02:15:53.374Z,41.20
2019-01-26T02:16:53.355Z,37.40
2019-01-26T02:17:53.347Z,32.00
2019-01-26T02:18:53.345Z,34.20
2019-01-26T02:19:53.355Z,26.10
2019-01-26T02:20:53.308Z,27.20
2019-01-26T02:21:53.309Z,23.70
2019-01-26T02:22:53.295Z,24.90
2019-01-26T02:23:53.285Z,21.10
2019-01-26T02:24:53.328Z,49.90
2019-01-26T02:25:53.294Z,31.40
2019-01-26T02:26:53.264Z,25.50
2019-01-26T02:27:53.241Z,38.10
2019-01-26T02:28:53.254Z,18.00
2019-01-26T02:29:53.247Z,53.70
2019-01-26T02:30:53.204Z,51.20
2019-01-26T02:31:53.214Z,49.40
2019-01-26T02:32:54.687Z,26.80
2019-01-26T02:33:53.207Z,22.20
2019-01-26T02:34:53.191Z,52.50
2019-01-26T02:35:53.194Z,35.70
2019-01-26T02:36:53.160Z,21.30
2019-01-26T02:37:53.166Z,32.10
2019-01-26T02:38:53.161Z,39.00
2019-01-26T02:39:53.118Z,21.90
2019-01-26T02:40:53.131Z,25.00
2019-01-26T02:41:53.115Z,28.00
2019-01-26T02:42:53.097Z,25.40
2019-01-26T02:43:53.144Z,19.50
2019-01-26T02:44:53.152Z,73.20
2019-01-26T02:45:53.059Z,53.20
2019-01-26T02:46:57.959Z,31.50
2019-01-26T02:47:54.031Z,23.60
2019-01-26T02:48:53.048Z,29.40
2019-01-26T02:49:53.037Z,71.80
2019-01-26T02:50:53.004Z,33.50
2019-01-26T02:51:52.991Z,31.00
2019-01-26T02:52:52.981Z,63.10
2019-01-26T02:53:52.973Z,26.90
2019-01-26T02:54:52.950Z,30.80
2019-01-26T02:55:52.961Z,52.70
2019-01-26T02:56:52.936Z,42.60
2019-01-26T02:57:52.927Z,35.40
2019-01-26T02:58:52.927Z,29.70
2019-01-26T02:59:52.920Z,52.10
2019-01-26T03:00:52.917Z,52.10
2019-01-26T03:01:52.889Z,59.80
2019-01-26T03:02:52.872Z,34.60
2019-01-26T03:03:52.873Z,30.20
2019-01-26T03:04:52.877Z,38.80
2019-01-26T03:05:52.842Z,34.00
2019-01-26T03:06:52.886Z,41.00
2019-01-26T03:07:52.817Z,35.60
2019-01-26T03:08:52.835Z,31.60
2019-01-26T03:09:52.819Z,59.00
2019-01-26T03:10:52.789Z,39.80
2019-01-26T03:11:52.863Z,58.20
2019-01-26T03:12:52.787Z,76.10
2019-01-26T03:13:52.774Z,87.80
2019-01-26T03:14:52.743Z,27.10
2019-01-26T03:15:52.738Z,55.50
2019-01-26T03:16:52.729Z,44.30
2019-01-26T03:17:52.753Z,71.70
2019-01-26T03:18:52.705Z,56.50
2019-01-26T03:19:52.699Z,37.90
2019-01-26T03:20:52.699Z,64.40
2019-01-26T03:21:52.711Z,65.90
2019-01-26T03:22:52.695Z,77.80
2019-01-26T03:23:52.697Z,68.10
2019-01-26T03:24:52.637Z,20.60
2019-01-26T03:25:52.633Z,29.50
2019-01-26T03:26:52.637Z,37.60
2019-01-26T03:27:52.646Z,61.00
2019-01-26T03:28:52.644Z,97.80
2019-01-26T03:29:52.619Z,40.80
2019-01-26T03:30:52.600Z,32.80
2019-01-26T03:31:52.575Z,27.90
2019-01-26T03:32:52.594Z,57.50
2019-01-26T03:33:52.552Z,47.60
2019-01-26T03:34:52.574Z,29.00
2019-01-26T03:35:52.526Z,43.50
2019-01-26T03:36:52.529Z,37.70
2019-01-26T03:37:52.551Z,103.50
2019-01-26T03:38:52.527Z,72.70
2019-01-26T03:39:52.500Z,34.00
2019-01-26T03:40:52.486Z,23.60
2019-01-26T03:41:52.468Z,33.60
2019-01-26T03:42:52.457Z,70.40
2019-01-26T03:43:52.509Z,42.80
2019-01-26T03:44:52.429Z,33.90
2019-01-26T03:45:52.418Z,78.20
2019-01-26T03:46:52.415Z,47.40
2019-01-26T03:47:52.397Z,49.50
2019-01-26T03:48:52.391Z,49.40
2019-01-26T03:49:53.696Z,44.90
2019-01-26T03:50:52.373Z,27.20
2019-01-26T03:51:52.364Z,45.60
2019-01-26T03:52:52.348Z,34.70
2019-01-26T03:53:52.365Z,30.60
2019-01-26T03:54:52.374Z,35.70
2019-01-26T03:55:52.351Z,26.90
2019-01-26T03:56:52.359Z,46.00
2019-01-26T03:57:52.310Z,53.80
2019-01-26T03:58:52.301Z,37.80
2019-01-26T03:59:52.280Z,26.70
2019-01-26T04:00:52.298Z,39.80
2019-01-26T04:01:52.261Z,25.30
2019-01-26T04:02:52.255Z,31.80
2019-01-26T04:03:52.242Z,38.60
2019-01-26T04:04:52.223Z,27.70
2019-01-26T04:05:52.254Z,21.50
2019-01-26T04:06:52.203Z,22.50
2019-01-26T04:07:52.197Z,22.60
2019-01-26T04:08:52.189Z,23.30
2019-01-26T04:09:52.177Z,23.60
2019-01-26T04:10:52.181Z,21.90
2019-01-26T04:11:52.152Z,24.70
2019-01-26T04:12:52.207Z,22.70
2019-01-26T04:13:52.130Z,26.20
2019-01-26T04:14:52.124Z,23.00
2019-01-26T04:15:52.187Z,21.40
2019-01-26T04:16:52.119Z,24.80
2019-01-26T04:17:52.081Z,21.50
2019-01-26T04:18:52.084Z,18.90
2019-01-26T04:19:52.112Z,17.60
2019-01-26T04:20:52.101Z,21.40
2019-01-26T04:21:52.073Z,21.30
2019-01-26T04:22:52.104Z,27.30
2019-01-26T04:23:52.041Z,21.00
2019-01-26T04:24:52.009Z,25.50
2019-01-26T04:25:52.024Z,25.90
2019-01-26T04:26:52.019Z,23.80
2019-01-26T04:27:52.003Z,23.50
2019-01-26T04:28:51.989Z,20.20
2019-01-26T04:29:51.958Z,23.30
2019-01-26T04:30:51.947Z,22.30
2019-01-26T04:31:51.979Z,22.40
2019-01-26T04:32:51.934Z,21.80
2019-01-26T04:33:51.928Z,26.20
2019-01-26T04:34:51.921Z,20.50
2019-01-26T04:35:51.911Z,26.60
2019-01-26T04:36:51.889Z,18.00
2019-01-26T04:37:51.950Z,24.30
2019-01-26T04:38:51.889Z,22.70
2019-01-26T04:39:51.871Z,25.20
2019-01-26T04:40:51.864Z,25.40
2019-01-26T04:41:51.868Z,25.50
2019-01-26T04:42:51.826Z,22.80
2019-01-26T04:43:51.870Z,23.70
2019-01-26T04:44:51.860Z,24.80
2019-01-26T04:45:51.803Z,24.00
2019-01-26T04:46:51.809Z,22.10
2019-01-26T04:47:51.785Z,21.10
2019-01-26T04:48:51.765Z,26.10
2019-01-26T04:49:51.761Z,26.30
2019-01-26T04:50:51.739Z,23.20
2019-01-26T04:51:51.740Z,20.10
2019-01-26T04:52:51.814Z,25.10
2019-01-26T04:53:51.739Z,25.30
2019-01-26T04:54:51.700Z,23.90
2019-01-26T04:55:51.699Z,26.10
2019-01-26T04:56:51.676Z,25.60
2019-01-26T04:57:51.706Z,26.90
2019-01-26T04:58:51.672Z,22.10
2019-01-26T04:59:51.685Z,24.20
2019-01-26T05:00:51.637Z,25.80
2019-01-26T05:01:51.625Z,24.30
2019-01-26T05:02:51.693Z,22.90
2019-01-26T05:03:51.613Z,22.60
2019-01-26T05:04:51.620Z,24.80
2019-01-26T05:05:51.590Z,27.10
2019-01-26T05:06:51.618Z,24.40
2019-01-26T05:09:09.150Z,16.60
2019-01-26T05:10:09.128Z,22.70
2019-01-26T05:11:09.113Z,22.80
2019-01-26T05:12:09.097Z,26.50
2019-01-26T05:13:09.118Z,27.90
2019-01-26T05:14:09.084Z,24.90
2019-01-26T05:15:09.072Z,26.60
2019-01-26T05:16:09.067Z,22.30
2019-01-26T05:17:09.093Z,23.10
2019-01-26T05:18:09.035Z,25.00
2019-01-26T05:19:09.034Z,25.30
2019-01-26T05:20:09.022Z,21.20
2019-01-26T05:21:09.011Z,24.50
2019-01-26T05:22:08.995Z,24.60
2019-01-26T05:23:09.016Z,19.80
2019-01-26T05:24:08.973Z,104.60
2019-01-26T05:25:08.969Z,70.30
2019-01-26T05:26:08.960Z,95.70
2019-01-26T05:27:08.953Z,58.30
2019-01-26T05:28:08.958Z,32.40
2019-01-26T05:29:08.920Z,44.70
2019-01-26T05:30:08.911Z,56.70
2019-01-26T05:31:08.903Z,51.50
2019-01-26T05:32:08.895Z,68.90
2019-01-26T05:33:08.911Z,95.50
2019-01-26T05:34:08.882Z,91.50
2019-01-26T05:35:08.858Z,105.60
2019-01-26T05:36:08.849Z,137.90
2019-01-26T05:37:08.846Z,58.90
2019-01-26T05:38:08.864Z,38.20
2019-01-26T05:39:08.829Z,39.00
2019-01-26T05:40:08.815Z,56.70
2019-01-26T05:41:08.822Z,47.00
2019-01-26T05:42:08.792Z,86.50
2019-01-26T05:43:08.783Z,80.20
2019-01-26T05:44:08.811Z,36.90
2019-01-26T05:45:08.766Z,28.40
2019-01-26T05:46:08.742Z,47.40
2019-01-26T05:47:08.735Z,49.40
2019-01-26T05:48:08.728Z,37.10
2019-01-26T05:49:08.721Z,50.10
2019-01-26T05:50:08.731Z,90.80
2019-01-26T05:51:08.718Z,53.80
2019-01-26T05:52:08.687Z,53.70
2019-01-26T05:53:08.682Z,42.80
2019-01-26T05:54:08.709Z,37.20
2019-01-26T05:55:08.665Z,25.20
2019-01-26T05:56:08.651Z,75.50
2019-01-26T05:57:08.633Z,54.70
2019-01-26T05:58:08.619Z,62.90
2019-01-26T05:59:08.605Z,49.50
2019-01-26T06:00:08.619Z,31.90
2019-01-26T06:01:08.621Z,53.70
2019-01-26T06:02:08.669Z,51.70
2019-01-26T06:03:08.641Z,28.40
2019-01-26T06:04:08.577Z,33.70
2019-01-26T06:05:08.576Z,62.90
2019-01-26T06:06:08.541Z,47.30
2019-01-26T06:07:08.583Z,43.90
2019-01-26T06:08:08.562Z,26.90
2019-01-26T06:09:08.555Z,41.60
2019-01-26T06:10:08.522Z,63.20
2019-01-26T06:11:08.538Z,64.40
2019-01-26T06:12:08.489Z,33.40
2019-01-26T06:13:08.511Z,59.20
2019-01-26T06:14:08.478Z,34.10
2019-01-26T06:15:08.494Z,61.00
2019-01-26T06:16:08.471Z,51.50
2019-01-26T06:17:08.437Z,31.90
2019-01-26T06:18:08.430Z,71.80
2019-01-26T06:19:08.413Z,60.50
2019-01-26T06:20:08.411Z,25.20
2019-01-26T06:21:08.424Z,35.50
2019-01-26T06:22:08.427Z,99.60
2019-01-26T06:23:08.368Z,69.70
2019-01-26T06:24:08.360Z,74.40
2019-01-26T06:25:08.358Z,83.20
2019-01-26T06:26:08.337Z,44.50
2019-01-26T06:27:08.363Z,70.70
2019-01-26T06:28:08.323Z,38.30
2019-01-26T06:29:08.311Z,49.70
2019-01-26T06:30:08.293Z,47.10
2019-01-26T06:31:08.283Z,25.50
2019-01-26T06:32:08.293Z,26.10
2019-01-26T06:33:08.276Z,22.70
2019-01-26T06:34:08.257Z,26.50
2019-01-26T06:35:08.249Z,23.60
2019-01-26T06:36:08.296Z,22.90
2019-01-26T06:37:08.238Z,24.20
2019-01-26T06:38:08.280Z,21.70
2019-01-26T06:39:08.780Z,20.10
2019-01-26T06:40:08.209Z,23.80
2019-01-26T06:41:08.195Z,22.20
2019-01-26T06:42:08.185Z,21.90
2019-01-26T06:43:08.160Z,25.60
2019-01-26T06:44:08.170Z,26.50
2019-01-26T06:45:08.181Z,22.70
2019-01-26T06:46:08.123Z,22.70
2019-01-26T06:47:08.155Z,25.10
2019-01-26T06:48:08.130Z,21.40
2019-01-26T06:49:08.142Z,20.70
2019-01-26T06:50:08.092Z,18.50
2019-01-26T06:51:08.083Z,25.00
2019-01-26T06:52:08.057Z,26.70
2019-01-26T06:53:08.089Z,18.60
2019-01-26T06:54:08.104Z,23.60
2019-01-26T06:55:08.022Z,21.10
2019-01-26T06:56:08.022Z,20.10
2019-01-26T06:57:08.095Z,26.10
2019-01-26T06:58:07.999Z,22.50
2019-01-26T06:59:08.021Z,23.10
2019-01-26T07:00:07.985Z,21.30
2019-01-26T07:01:07.971Z,19.80
2019-01-26T07:02:08.030Z,20.90
2019-01-26T07:03:07.959Z,21.90
2019-01-26T07:04:07.985Z,20.70
2019-01-26T07:05:07.927Z,19.80
2019-01-26T07:06:07.914Z,22.40
2019-01-26T07:07:07.943Z,20.40
2019-01-26T07:08:07.908Z,21.20
2019-01-26T07:09:07.887Z,19.00
2019-01-26T07:10:07.868Z,21.10
2019-01-26T07:11:07.868Z,20.90
2019-01-26T07:12:07.853Z,22.00
2019-01-26T07:13:07.862Z,21.10
2019-01-26T07:14:07.856Z,19.70
2019-01-26T07:15:07.819Z,51.90
2019-01-26T07:16:07.804Z,64.80
2019-01-26T07:17:07.804Z,37.90
2019-01-26T07:18:09.447Z,62.00
2019-01-26T07:19:07.816Z,59.00
2019-01-26T07:20:07.799Z,56.30
2019-01-26T07:21:07.757Z,42.60
2019-01-26T07:22:07.745Z,40.80
2019-01-26T07:23:07.747Z,46.70
2019-01-26T07:24:07.741Z,63.20
2019-01-26T07:25:08.548Z,37.70
2019-01-26T07:26:07.711Z,70.40
2019-01-26T07:27:07.689Z,74.70
2019-01-26T07:28:07.680Z,65.80
2019-01-26T07:29:07.672Z,40.00
2019-01-26T07:30:07.694Z,57.00
2019-01-26T07:31:07.663Z,47.10
2019-01-26T07:32:07.647Z,37.20
2019-01-26T07:33:07.624Z,46.40
2019-01-26T07:34:07.614Z,64.20
2019-01-26T07:35:07.611Z,53.20
2019-01-26T07:36:07.616Z,54.90
2019-01-26T07:37:07.587Z,59.40
2019-01-26T07:38:13.477Z,51.50
2019-01-26T07:39:08.572Z,48.20
2019-01-26T07:40:07.562Z,57.50
2019-01-26T07:41:07.574Z,50.70
2019-01-26T07:42:07.547Z,55.00
2019-01-26T07:43:07.597Z,55.80
2019-01-26T07:44:07.564Z,43.50
2019-01-26T07:45:07.497Z,58.80
2019-01-26T07:46:07.500Z,25.00
2019-01-26T07:47:07.526Z,20.10
2019-01-26T07:48:07.480Z,18.60
2019-01-26T07:49:07.492Z,16.90
2019-01-26T07:50:07.465Z,16.60
2019-01-26T07:51:07.569Z,16.60
2019-01-26T07:52:07.451Z,19.20
2019-01-26T07:53:07.436Z,17.50
2019-01-26T07:54:07.440Z,22.70
2019-01-26T07:55:07.398Z,18.30
2019-01-26T07:56:07.383Z,15.70
2019-01-26T07:57:07.379Z,18.20
2019-01-26T07:58:07.366Z,16.70
2019-01-26T07:59:07.370Z,16.20
2019-01-26T08:00:07.375Z,14.40
2019-01-26T08:01:07.339Z,16.10
2019-01-26T08:02:07.340Z,17.60
2019-01-26T08:03:07.315Z,21.80
2019-01-26T08:04:07.315Z,18.60
2019-01-26T08:05:07.336Z,19.60
2019-01-26T08:06:07.284Z,16.90
2019-01-26T08:07:07.292Z,18.70
2019-01-26T08:08:07.261Z,20.80
2019-01-26T08:09:07.297Z,21.50
2019-01-26T08:10:07.242Z,18.80
2019-01-26T08:11:07.227Z,17.80
2019-01-26T08:12:07.222Z,21.40
2019-01-26T08:13:07.208Z,18.90
2019-01-26T08:14:07.192Z,16.50
2019-01-26T08:15:07.279Z,20.20
2019-01-26T08:16:07.181Z,16.90
2019-01-26T08:17:07.185Z,17.40
2019-01-26T08:18:07.158Z,16.50
2019-01-26T08:19:07.146Z,14.30
2019-01-26T08:20:07.162Z,16.20
2019-01-26T08:21:07.141Z,24.00
2019-01-26T08:22:07.148Z,18.10
2019-01-26T08:23:07.100Z,19.90
2019-01-26T08:24:07.096Z,19.70
2019-01-26T08:25:07.079Z,21.80
2019-01-26T08:26:07.075Z,18.10
2019-01-26T08:27:07.050Z,20.80
2019-01-26T08:28:07.127Z,18.40
2019-01-26T08:29:07.052Z,18.80
2019-01-26T08:30:07.031Z,23.30
2019-01-26T08:31:07.013Z,21.30
2019-01-26T08:32:07.003Z,20.80
2019-01-26T08:33:07.019Z,21.40
2019-01-26T08:34:06.990Z,18.70
2019-01-26T08:35:06.976Z,18.50
2019-01-26T08:36:06.980Z,18.40
2019-01-26T08:37:06.971Z,16.10
2019-01-26T08:38:06.978Z,22.10
2019-01-26T08:39:06.945Z,18.50
2019-01-26T08:40:06.916Z,18.20
2019-01-26T08:41:06.911Z,23.60
2019-01-26T08:42:06.916Z,19.10
2019-01-26T08:43:06.922Z,18.00
2019-01-26T08:44:06.887Z,22.70
2019-01-26T08:45:06.997Z,22.70
2019-01-26T08:46:07.219Z,19.20
2019-01-26T08:47:07.000Z,24.90
2019-01-26T08:48:06.860Z,17.00
2019-01-26T08:49:08.759Z,20.80
2019-01-26T08:50:07.025Z,20.80
2019-01-26T08:51:07.654Z,20.30
2019-01-26T08:52:07.050Z,22.70
2019-01-26T08:53:06.971Z,18.10
2019-01-26T08:54:06.815Z,18.30
2019-01-26T08:55:06.800Z,20.60
2019-01-26T08:56:06.782Z,17.80
2019-01-26T08:57:06.739Z,20.00
2019-01-26T08:58:06.743Z,19.90
2019-01-26T08:59:06.833Z,18.00
2019-01-26T09:00:06.784Z,19.50
2019-01-26T09:01:06.731Z,23.90
2019-01-26T09:02:06.702Z,19.70
2019-01-26T09:03:06.682Z,17.40
2019-01-26T09:04:06.666Z,17.70
2019-01-26T09:05:06.659Z,18.70
2019-01-26T09:06:06.740Z,17.00
2019-01-26T09:07:06.638Z,18.40
2019-01-26T09:08:06.630Z,18.00
2019-01-26T09:09:06.654Z,21.10
2019-01-26T09:10:06.600Z,16.90
2019-01-26T09:11:06.597Z,16.90
2019-01-26T09:12:06.605Z,21.80
2019-01-26T09:13:06.600Z,18.10
2019-01-26T09:14:06.574Z,17.30
2019-01-26T09:15:06.564Z,18.50
2019-01-26T09:16:06.559Z,21.00
2019-01-26T09:17:06.575Z,15.30
2019-01-26T09:18:06.516Z,18.80
2019-01-26T09:19:06.514Z,22.30
2019-01-26T09:20:06.505Z,17.80
2019-01-26T09:21:06.487Z,17.70
2019-01-26T09:22:06.498Z,18.80
2019-01-26T09:23:06.523Z,24.10
2019-01-26T09:24:06.455Z,18.50
2019-01-26T09:25:06.453Z,15.00
2019-01-26T09:26:06.445Z,21.30
2019-01-26T09:27:06.437Z,17.90
2019-01-26T09:28:06.459Z,18.50
2019-01-26T09:29:06.411Z,15.80
2019-01-26T09:30:06.401Z,21.30
2019-01-26T09:31:06.381Z,18.50
2019-01-26T09:32:06.371Z,17.40
2019-01-26T09:33:06.364Z,19.00
2019-01-26T09:34:06.380Z,14.80
2019-01-26T09:35:06.344Z,18.20
2019-01-26T09:36:06.325Z,15.90
2019-01-26T09:37:06.325Z,22.40
2019-01-26T09:38:06.327Z,26.40
2019-01-26T09:39:06.334Z,16.10
2019-01-26T09:40:06.316Z,17.20
2019-01-26T09:41:06.281Z,18.30
2019-01-26T09:42:06.311Z,15.40
2019-01-26T09:43:06.294Z,15.90
2019-01-26T09:44:06.356Z,15.10
2019-01-26T09:45:06.239Z,17.80
2019-01-26T09:46:06.228Z,17.00
2019-01-26T09:47:06.225Z,12.80
2019-01-26T09:48:06.202Z,18.70
2019-01-26T09:49:06.217Z,14.30
2019-01-26T09:50:06.188Z,13.80
2019-01-26T09:51:06.172Z,12.30
2019-01-26T09:52:06.170Z,15.10
2019-01-26T09:53:06.227Z,16.20
2019-01-26T09:54:06.190Z,17.10
2019-01-26T09:55:06.167Z,12.30
2019-01-26T09:56:06.118Z,16.90
2019-01-26T09:57:06.163Z,15.10
2019-01-26T09:58:06.170Z,14.90
2019-01-26T09:59:06.178Z,13.90
2019-01-26T10:00:06.142Z,16.40
2019-01-26T10:01:06.161Z,12.70
2019-01-26T10:02:06.061Z,14.10
2019-01-26T10:03:06.112Z,14.00
2019-01-26T10:04:06.037Z,15.00
2019-01-26T10:05:06.026Z,13.70
2019-01-26T10:06:06.062Z,11.60
2019-01-26T10:07:06.130Z,9.00
2019-01-26T10:08:06.036Z,9.30
2019-01-26T10:09:06.008Z,10.50
2019-01-26T10:10:05.973Z,10.30
2019-01-26T10:11:05.960Z,11.70
2019-01-26T10:12:05.973Z,14.00
2019-01-26T10:13:05.939Z,12.10
2019-01-26T10:14:05.930Z,10.70
2019-01-26T10:15:05.918Z,10.60
2019-01-26T10:16:05.915Z,8.20
2019-01-26T10:17:05.937Z,11.10
2019-01-26T10:18:05.892Z,9.70
2019-01-26T10:19:05.882Z,10.70
2019-01-26T10:20:05.866Z,8.00
2019-01-26T10:21:05.948Z,8.50
2019-01-26T10:22:05.840Z,8.10
2019-01-26T10:23:05.875Z,8.80
2019-01-26T10:24:05.834Z,11.50
2019-01-26T10:25:05.813Z,7.30
2019-01-26T10:26:05.799Z,10.30
2019-01-26T10:27:05.786Z,9.50
2019-01-26T10:28:05.798Z,8.80
2019-01-26T10:29:05.807Z,8.20
2019-01-26T10:30:05.775Z,8.10
2019-01-26T10:31:05.751Z,9.20
2019-01-26T10:32:05.751Z,9.10
2019-01-26T10:33:05.734Z,8.50
2019-01-26T10:34:05.739Z,10.10
2019-01-26T10:35:05.706Z,8.70
2019-01-26T10:36:05.699Z,11.00
2019-01-26T10:37:05.698Z,7.70
2019-01-26T10:38:05.726Z,8.10
2019-01-26T10:39:05.708Z,9.60
2019-01-26T10:40:05.646Z,8.40
2019-01-26T10:41:05.653Z,9.00
2019-01-26T10:42:05.638Z,8.90
2019-01-26T10:43:05.636Z,10.00
2019-01-26T10:44:05.900Z,8.70
2019-01-26T10:45:05.603Z,7.90
2019-01-26T10:46:05.590Z,8.70
2019-01-26T10:47:05.580Z,9.80
2019-01-26T10:48:05.575Z,10.90
2019-01-26T10:49:05.558Z,6.70
2019-01-26T10:50:05.594Z,7.20
2019-01-26T10:51:05.542Z,5.90
2019-01-26T10:52:05.527Z,8.90
2019-01-26T10:53:05.512Z,9.40
2019-01-26T10:54:05.506Z,9.00
2019-01-26T10:55:05.523Z,8.00
2019-01-26T10:56:05.491Z,8.30
2019-01-26T10:57:05.478Z,8.80
2019-01-26T10:58:05.457Z,8.10
2019-01-26T10:59:05.460Z,10.10
2019-01-26T11:00:05.476Z,10.60
2019-01-26T11:01:05.462Z,9.30
2019-01-26T11:02:06.833Z,7.80
2019-01-26T11:03:05.423Z,8.80
2019-01-26T11:04:05.403Z,9.10
2019-01-26T11:05:05.492Z,8.00
2019-01-26T11:06:05.412Z,7.30
2019-01-26T11:07:05.419Z,9.00
2019-01-26T11:08:05.356Z,8.90
2019-01-26T11:09:05.355Z,8.90
2019-01-26T11:10:05.344Z,10.20
2019-01-26T11:11:05.348Z,8.10
2019-01-26T11:12:05.416Z,7.70
2019-01-26T11:13:05.348Z,8.00
2019-01-26T11:14:05.309Z,9.40
2019-01-26T11:15:05.337Z,7.60
2019-01-26T11:16:05.332Z,6.10
2019-01-26T11:17:05.350Z,8.50
2019-01-26T11:18:05.347Z,9.20
2019-01-26T11:19:08.031Z,7.00
2019-01-26T11:20:05.289Z,7.70
2019-01-26T11:21:05.256Z,7.90
2019-01-26T11:22:05.299Z,9.00
2019-01-26T11:23:05.208Z,7.10
2019-01-26T11:24:05.231Z,6.40
2019-01-26T11:25:05.175Z,6.80
2019-01-26T11:26:05.170Z,6.10
2019-01-26T11:27:05.168Z,9.40
2019-01-26T11:28:05.231Z,9.40
2019-01-26T11:29:05.335Z,7.00
2019-01-26T11:30:05.179Z,6.80
2019-01-26T11:31:05.152Z,6.60
2019-01-26T11:32:05.149Z,7.90
2019-01-26T11:33:05.903Z,4.50
2019-01-26T11:34:05.183Z,6.50
2019-01-26T11:35:05.820Z,9.10
2019-01-26T11:36:05.172Z,5.70
2019-01-26T11:37:05.057Z,5.80
2019-01-26T11:38:05.202Z,6.60
2019-01-26T11:39:05.031Z,7.40
2019-01-26T11:40:05.106Z,6.80
2019-01-26T11:41:05.079Z,10.30
2019-01-26T11:42:05.112Z,6.10
2019-01-26T11:43:05.002Z,5.60
2019-01-26T11:44:05.002Z,4.80
2019-01-26T11:45:04.992Z,6.60
2019-01-26T11:46:04.956Z,8.50
2019-01-26T11:47:06.090Z,5.40
2019-01-26T11:48:04.980Z,5.10
2019-01-26T11:49:05.047Z,5.20
2019-01-26T11:50:04.931Z,4.80
2019-01-26T11:51:04.998Z,5.90
2019-01-26T11:52:04.889Z,5.10
2019-01-26T11:53:05.825Z,5.30
2019-01-26T11:54:04.926Z,8.10
2019-01-26T11:55:04.898Z,5.30
2019-01-26T11:56:04.869Z,4.60
2019-01-26T11:57:04.892Z,4.40
2019-01-26T11:58:04.988Z,5.00
2019-01-26T11:59:04.943Z,5.40
2019-01-26T12:00:04.809Z,6.70
2019-01-26T12:01:04.815Z,4.80
2019-01-26T12:02:04.785Z,5.50
2019-01-26T12:03:04.833Z,3.50
2019-01-26T12:04:04.788Z,3.70
2019-01-26T12:05:04.849Z,5.50
2019-01-26T12:06:04.747Z,4.30
2019-01-26T12:07:04.746Z,5.40
2019-01-26T12:08:04.728Z,5.10
2019-01-26T12:09:04.836Z,4.90
2019-01-26T12:10:04.717Z,5.60
2019-01-26T12:11:04.700Z,4.90
2019-01-26T12:12:04.695Z,5.20
2019-01-26T12:13:04.687Z,3.90
2019-01-26T12:14:04.759Z,5.20
2019-01-26T12:15:04.709Z,4.00
2019-01-26T12:16:04.657Z,5.70
2019-01-26T12:17:04.736Z,6.00
2019-01-26T12:18:04.622Z,6.00
2019-01-26T12:19:04.691Z,4.40
2019-01-26T12:20:04.615Z,6.20
2019-01-26T12:21:05.904Z,5.50
2019-01-26T12:22:04.626Z,4.90
2019-01-26T12:23:04.616Z,5.70
2019-01-26T12:24:04.551Z,5.40
2019-01-26T12:25:04.550Z,5.30
2019-01-26T12:26:04.546Z,4.20
2019-01-26T12:27:04.551Z,5.90
2019-01-26T12:28:04.514Z,5.40
2019-01-26T12:29:04.496Z,4.60
2019-01-26T12:30:04.501Z,3.70
2019-01-26T12:31:04.487Z,5.40
2019-01-26T12:32:04.594Z,4.60
2019-01-26T12:33:04.455Z,6.90
2019-01-26T12:34:04.449Z,4.80
2019-01-26T12:35:04.434Z,5.70
2019-01-26T12:36:04.436Z,4.70
2019-01-26T12:37:04.423Z,4.40
2019-01-26T12:38:04.436Z,4.40
2019-01-26T12:39:04.403Z,5.20
2019-01-26T12:40:04.420Z,6.10
2019-01-26T12:41:04.377Z,5.00
2019-01-26T12:42:04.368Z,5.10
2019-01-26T12:43:04.436Z,4.60
2019-01-26T12:44:04.336Z,4.70
2019-01-26T12:45:04.377Z,5.70
2019-01-26T12:46:04.343Z,6.10
2019-01-26T12:47:04.312Z,5.60
2019-01-26T12:48:04.387Z,4.90
2019-01-26T12:49:04.805Z,5.10
2019-01-26T12:50:04.397Z,5.90
2019-01-26T12:51:04.272Z,5.00
2019-01-26T12:52:04.279Z,5.70
2019-01-26T12:53:04.278Z,4.80
2019-01-26T12:54:04.241Z,3.60
2019-01-26T12:55:04.223Z,5.30
2019-01-26T12:56:04.208Z,3.60
2019-01-26T12:57:04.203Z,5.50
2019-01-26T12:58:04.218Z,4.10
2019-01-26T12:59:04.191Z,4.50